Federal Yukina — VRHN7 — position and weather

sailwx.info

Track history (hours):
 
Tides and Currents Weather Stations Pressure Air Temp Water Temp Dewpoint Dewpoint Depression Visibility Wind Speed Wind Dir Waves Ship Positions

Federal Yukina

Last reported at 2017-Sep-18 15:55 UTC. Time now 2017-Sep-24 10:26 UTC.
Position N 45°33' W 073°31'.

Length 200 m; draft 8 m.

Type: Cargo ship. MMSI: 477959900.

Date/timePositionNaut miles runAvg speedWind from/ knotsBaromVisibWave heightAir tempDewpointWater temp
2017-Sep-18 15:55N 45°33' W 073°31'3 3.1
2017-Sep-18 14:51N 45°30' W 073°31'1 2.4
2017-Sep-18 14:30N 45°29' W 073°31'3 6.4
2017-Sep-18 14:00N 45°26' W 073°30'3 3.1
2017-Sep-18 13:03N 45°24' W 073°34'0 1.2
2017-Sep-18 12:52N 45°24' W 073°34'1 2.5
2017-Sep-18 12:30N 45°24' W 073°36'3 5.5
2017-Sep-18 12:00N 45°25' W 073°40'2 4.2
2017-Sep-18 11:30N 45°25' W 073°43'510.2
2017-Sep-18 11:00N 45°23' W 073°49'510.3
2017-Sep-18 10:30N 45°19' W 073°55'0 0.8
2017-Sep-18 10:00N 45°19' W 073°55'1 1.6
2017-Sep-18 09:30N 45°18' W 073°56'0 0.7
2017-Sep-18 08:59N 45°18' W 073°56'3 6.6
2017-Sep-18 08:30N 45°15' W 073°58'610.3
2017-Sep-18 07:58N 45°13' W 074°06'510.8
2017-Sep-18 07:30N 45°14' W 074°13'612.2
2017-Sep-18 06:59N 45°10' W 074°20'611.9
2017-Sep-18 06:29N 45°07' W 074°28'610.6
2017-Sep-18 05:57N 45°03' W 074°33'510.4
2017-Sep-18 05:27N 45°01' W 074°40'  
2017-Sep-14 15:27N 44°28' W 082°19'6911.5
2017-Sep-14 09:25N 45°24' W 083°16'613.4
2017-Sep-14 08:57N 45°27' W 083°24'613.4
2017-Sep-14 08:30N 45°29' W 083°32'713.4
2017-Sep-14 08:00N 45°32' W 083°41'713.5
2017-Sep-14 07:30N 45°35' W 083°49'713.5
2017-Sep-14 07:00N 45°38' W 083°58'713.4
2017-Sep-14 06:30N 45°41' W 084°07'612.8
2017-Sep-14 06:00N 45°43' W 084°15'613.0
2017-Sep-14 05:30N 45°41' W 084°24'613.0
2017-Sep-14 05:00N 45°44' W 084°33'713.4
2017-Sep-14 04:30N 45°48' W 084°41'713.3
2017-Sep-14 04:00N 45°49' W 084°50'713.4
2017-Sep-14 03:30N 45°50' W 084°60'713.2
2017-Sep-14 03:00N 45°51' W 085°09'713.3
2017-Sep-14 02:30N 45°52' W 085°19'713.3
2017-Sep-14 02:00N 45°53' W 085°28'613.1
2017-Sep-14 01:30N 45°53' W 085°37'713.4
2017-Sep-14 01:00N 45°50' W 085°46'713.6
2017-Sep-14 00:30N 45°47' W 085°55'712.7
2017-Sep-13 23:59N 45°41' W 086°00'2113.5
2017-Sep-13 22:26N 45°21' W 086°09'613.4
2017-Sep-13 22:00N 45°16' W 086°11'713.3
2017-Sep-13 21:30N 45°09' W 086°13'713.3
2017-Sep-13 20:57N 45°02' W 086°15'1113.3
2017-Sep-13 20:06N 44°51' W 086°19'113.4
2017-Sep-13 20:00N 44°50' W 086°19'  
Track history (hours):
 
Tides and Currents Weather Stations Pressure Air Temp Water Temp Dewpoint Dewpoint Depression Visibility Wind Speed Wind Dir Waves Ship Positions

Federal Yukina

Last reported at 2017-Sep-18 15:55 UTC. Time now 2017-Sep-24 10:26 UTC.
Position N 45°33' W 073°31'.

Length 200 m; draft 8 m.

Type: Cargo ship. MMSI: 477959900.

Date/timePositionNaut miles runAvg speedWind from/ knotsBaromVisibWave heightAir tempDewpointWater temp
2017-Sep-18 15:55N 45°33' W 073°31'3 3.1
2017-Sep-18 14:51N 45°30' W 073°31'1 2.4
2017-Sep-18 14:30N 45°29' W 073°31'3 6.4
2017-Sep-18 14:00N 45°26' W 073°30'3 3.1
2017-Sep-18 13:03N 45°24' W 073°34'0 1.2
2017-Sep-18 12:52N 45°24' W 073°34'1 2.5
2017-Sep-18 12:30N 45°24' W 073°36'3 5.5
2017-Sep-18 12:00N 45°25' W 073°40'2 4.2
2017-Sep-18 11:30N 45°25' W 073°43'510.2
2017-Sep-18 11:00N 45°23' W 073°49'510.3
2017-Sep-18 10:30N 45°19' W 073°55'0 0.8
2017-Sep-18 10:00N 45°19' W 073°55'1 1.6
2017-Sep-18 09:30N 45°18' W 073°56'0 0.7
2017-Sep-18 08:59N 45°18' W 073°56'3 6.6
2017-Sep-18 08:30N 45°15' W 073°58'610.3
2017-Sep-18 07:58N 45°13' W 074°06'510.8
2017-Sep-18 07:30N 45°14' W 074°13'612.2
2017-Sep-18 06:59N 45°10' W 074°20'611.9
2017-Sep-18 06:29N 45°07' W 074°28'610.6
2017-Sep-18 05:57N 45°03' W 074°33'510.4
2017-Sep-18 05:27N 45°01' W 074°40'  
2017-Sep-14 15:27N 44°28' W 082°19'6911.5
2017-Sep-14 09:25N 45°24' W 083°16'613.4
2017-Sep-14 08:57N 45°27' W 083°24'613.4
2017-Sep-14 08:30N 45°29' W 083°32'713.4
2017-Sep-14 08:00N 45°32' W 083°41'713.5
2017-Sep-14 07:30N 45°35' W 083°49'713.5
2017-Sep-14 07:00N 45°38' W 083°58'713.4
2017-Sep-14 06:30N 45°41' W 084°07'612.8
2017-Sep-14 06:00N 45°43' W 084°15'613.0
2017-Sep-14 05:30N 45°41' W 084°24'613.0
2017-Sep-14 05:00N 45°44' W 084°33'713.4
2017-Sep-14 04:30N 45°48' W 084°41'713.3
2017-Sep-14 04:00N 45°49' W 084°50'713.4
2017-Sep-14 03:30N 45°50' W 084°60'713.2
2017-Sep-14 03:00N 45°51' W 085°09'713.3
2017-Sep-14 02:30N 45°52' W 085°19'713.3
2017-Sep-14 02:00N 45°53' W 085°28'613.1
2017-Sep-14 01:30N 45°53' W 085°37'713.4
2017-Sep-14 01:00N 45°50' W 085°46'713.6
2017-Sep-14 00:30N 45°47' W 085°55'712.7
2017-Sep-13 23:59N 45°41' W 086°00'2113.5
2017-Sep-13 22:26N 45°21' W 086°09'613.4
2017-Sep-13 22:00N 45°16' W 086°11'713.3
2017-Sep-13 21:30N 45°09' W 086°13'713.3
2017-Sep-13 20:57N 45°02' W 086°15'1113.3
2017-Sep-13 20:06N 44°51' W 086°19'113.4
2017-Sep-13 20:00N 44°50' W 086°19'  

Dump ship's entire track history